createdAt,value
2018-06-28T00:00:06.557Z,4.75
2018-06-28T00:02:41.095Z,3.70
2018-06-28T00:05:14.823Z,3.80
2018-06-28T00:07:48.628Z,4.00
2018-06-28T00:10:23.269Z,3.62
2018-06-28T00:12:57.055Z,3.33
2018-06-28T00:15:30.677Z,3.70
2018-06-28T00:18:04.548Z,3.50
2018-06-28T00:20:38.333Z,3.58
2018-06-28T00:23:11.950Z,3.55
2018-06-28T00:25:45.729Z,3.40
2018-06-28T00:28:19.377Z,4.05
2018-06-28T00:30:53.185Z,3.90
2018-06-28T00:33:27.044Z,4.00
2018-06-28T00:36:00.848Z,4.12
2018-06-28T00:38:35.505Z,3.80
2018-06-28T00:41:09.384Z,3.90
2018-06-28T00:43:44.128Z,3.80
2018-06-28T00:46:17.837Z,3.95
2018-06-28T00:48:51.748Z,4.10
2018-06-28T00:51:25.532Z,4.15
2018-06-28T00:53:59.172Z,5.05
2018-06-28T00:56:33.007Z,4.18
2018-06-28T00:59:06.837Z,3.80
2018-06-28T01:01:41.388Z,3.58
2018-06-28T01:04:15.110Z,3.75
2018-06-28T01:06:48.840Z,3.67
2018-06-28T01:09:23.432Z,3.95
2018-06-28T01:11:57.034Z,4.15
2018-06-28T01:14:30.740Z,4.30
2018-06-28T01:17:05.392Z,4.10
2018-06-28T01:19:39.201Z,5.53
2018-06-28T01:22:13.812Z,4.53
2018-06-28T01:24:47.629Z,4.22
2018-06-28T01:27:21.223Z,5.40
2018-06-28T01:29:56.548Z,3.55
2018-06-28T01:32:30.305Z,3.37
2018-06-28T01:35:03.919Z,4.05
2018-06-28T01:37:37.612Z,4.25
2018-06-28T01:40:11.480Z,5.15
2018-06-28T01:45:44.391Z,5.12
2018-06-28T01:48:17.993Z,3.90
2018-06-28T01:50:51.691Z,4.40
2018-06-28T01:53:25.502Z,4.03
2018-06-28T01:55:59.188Z,4.60
2018-06-28T01:58:32.952Z,4.30
2018-06-28T02:01:06.754Z,4.15
2018-06-28T02:03:40.632Z,4.85
2018-06-28T02:06:14.320Z,5.75
2018-06-28T02:08:48.176Z,3.67
2018-06-28T02:11:22.049Z,3.75
2018-06-28T02:13:57.379Z,4.95
2018-06-28T02:16:32.014Z,5.50
2018-06-28T02:19:05.703Z,4.50
2018-06-28T02:21:39.428Z,3.80
2018-06-28T02:24:13.250Z,4.68
2018-06-28T02:26:47.004Z,4.72
2018-06-28T02:29:20.954Z,4.28
2018-06-28T02:31:54.594Z,4.70
2018-06-28T02:34:28.263Z,4.43
2018-06-28T02:37:02.051Z,4.40
2018-06-28T02:39:37.284Z,5.25
2018-06-28T02:42:11.804Z,5.45
2018-06-28T02:44:45.590Z,4.60
2018-06-28T02:47:19.501Z,4.65
2018-06-28T02:49:53.341Z,4.90
2018-06-28T02:52:27.028Z,4.68
2018-06-28T02:55:00.829Z,4.40
2018-06-28T02:57:34.682Z,4.35
2018-06-28T03:00:08.426Z,6.43
2018-06-28T03:02:42.252Z,5.10
2018-06-28T03:05:16.064Z,4.93
2018-06-28T03:07:49.686Z,4.90
2018-06-28T03:10:23.488Z,5.90
2018-06-28T03:12:57.316Z,7.82
2018-06-28T03:15:30.965Z,5.40
2018-06-28T03:18:04.770Z,5.15
2018-06-28T03:20:38.593Z,5.72
2018-06-28T03:23:12.305Z,7.75
2018-06-28T03:25:46.949Z,5.78
2018-06-28T03:28:20.584Z,5.68
2018-06-28T03:30:54.398Z,7.35
2018-06-28T03:33:28.254Z,5.53
2018-06-28T03:36:01.938Z,6.45
2018-06-28T03:38:35.671Z,5.80
2018-06-28T03:41:09.525Z,5.47
2018-06-28T03:43:44.036Z,5.43
2018-06-28T03:46:17.650Z,5.65
2018-06-28T03:48:51.377Z,5.53
2018-06-28T03:51:25.085Z,5.12
2018-06-28T03:53:58.879Z,5.30
2018-06-28T03:56:32.739Z,5.10
2018-06-28T03:59:07.314Z,6.20
2018-06-28T04:01:41.138Z,5.30
2018-06-28T04:04:14.910Z,6.15
2018-06-28T04:06:50.182Z,9.73
2018-06-28T04:09:24.016Z,9.27
2018-06-28T04:11:57.900Z,8.70
2018-06-28T04:17:22.281Z,5.53
2018-06-28T04:19:56.781Z,5.25
2018-06-28T04:22:30.565Z,6.35
2018-06-28T04:25:05.124Z,5.90
2018-06-28T04:27:39.048Z,6.72
2018-06-28T04:30:12.857Z,5.90
2018-06-28T04:32:47.496Z,6.75
2018-06-28T04:35:21.237Z,5.53
2018-06-28T04:37:55.039Z,6.90
2018-06-28T04:40:28.742Z,6.00
2018-06-28T04:43:02.545Z,6.22
2018-06-28T04:45:37.114Z,9.02
2018-06-28T04:48:11.560Z,6.53
2018-06-28T04:50:46.597Z,6.40
2018-06-28T04:53:20.387Z,6.35
2018-06-28T04:55:55.029Z,6.32
2018-06-28T04:58:30.266Z,34.83
2018-06-28T05:01:04.064Z,7.28
2018-06-28T05:03:38.699Z,7.12
2018-06-28T05:06:12.417Z,6.45
2018-06-28T05:08:47.357Z,7.93
2018-06-28T05:11:21.850Z,7.20
2018-06-28T05:13:55.546Z,6.35
2018-06-28T05:16:29.353Z,6.43
2018-06-28T05:19:03.139Z,7.72
2018-06-28T05:21:36.882Z,6.35
2018-06-28T05:24:10.593Z,10.07
2018-06-28T05:26:44.367Z,6.93
2018-06-28T05:29:18.184Z,6.60
2018-06-28T05:31:52.592Z,6.70
2018-06-28T05:34:26.366Z,5.90
2018-06-28T05:37:00.177Z,6.70
2018-06-28T05:39:33.904Z,6.90
2018-06-28T05:42:08.424Z,7.53
2018-06-28T05:44:42.966Z,8.70
2018-06-28T05:47:16.619Z,7.75
2018-06-28T05:49:51.109Z,6.80
2018-06-28T05:52:24.901Z,7.15
2018-06-28T05:54:59.534Z,6.50
2018-06-28T05:57:33.403Z,7.07
2018-06-28T06:00:07.077Z,6.72
2018-06-28T06:02:40.945Z,7.97
2018-06-28T06:05:16.356Z,7.28
2018-06-28T06:07:51.017Z,6.40
2018-06-28T06:10:26.402Z,7.40
2018-06-28T06:13:01.038Z,8.55
2018-06-28T06:15:34.692Z,7.65
2018-06-28T06:18:08.501Z,11.30
2018-06-28T06:20:42.887Z,7.72
2018-06-28T06:23:17.412Z,9.38
2018-06-28T06:25:51.269Z,7.82
2018-06-28T06:28:25.220Z,9.13
2018-06-28T06:30:58.973Z,7.30
2018-06-28T06:33:32.669Z,7.22
2018-06-28T06:36:06.290Z,11.00
2018-06-28T06:38:40.857Z,7.65
2018-06-28T06:41:14.561Z,7.40
2018-06-28T06:43:48.348Z,7.62
2018-06-28T06:46:21.992Z,7.20
2018-06-28T06:48:56.334Z,10.02
2018-06-28T06:51:30.057Z,6.97
2018-06-28T06:54:03.820Z,7.50
2018-06-28T06:56:38.421Z,7.22
2018-06-28T06:59:12.161Z,7.55
2018-06-28T07:01:45.933Z,6.75
2018-06-28T07:04:19.684Z,9.38
2018-06-28T07:06:53.301Z,7.15
2018-06-28T07:09:27.186Z,7.00
2018-06-28T07:12:01.064Z,11.93
2018-06-28T07:14:34.871Z,6.93
2018-06-28T07:17:08.719Z,7.05
2018-06-28T07:19:42.511Z,6.75
2018-06-28T07:22:17.009Z,6.37
2018-06-28T07:24:51.131Z,6.85
2018-06-28T07:27:24.848Z,6.25
2018-06-28T07:29:59.477Z,6.80
2018-06-28T07:32:33.285Z,7.40
2018-06-28T07:35:07.772Z,6.57
2018-06-28T07:37:41.612Z,6.70
2018-06-28T07:40:15.329Z,6.95
2018-06-28T07:42:49.018Z,6.40
2018-06-28T07:45:23.587Z,6.70
2018-06-28T07:47:57.277Z,5.93
2018-06-28T07:50:31.033Z,6.70
2018-06-28T07:53:05.604Z,6.07
2018-06-28T07:55:40.185Z,6.95
2018-06-28T07:58:14.861Z,6.50
2018-06-28T08:00:48.525Z,5.97
2018-06-28T08:03:22.231Z,8.83
2018-06-28T08:05:56.759Z,5.80
2018-06-28T08:08:30.589Z,5.53
2018-06-28T08:11:05.256Z,5.73
2018-06-28T08:13:39.137Z,8.03
2018-06-28T08:16:13.789Z,7.00
2018-06-28T08:18:47.491Z,6.13
2018-06-28T08:21:22.151Z,6.03
2018-06-28T08:23:56.030Z,6.17
2018-06-28T08:26:29.792Z,8.70
2018-06-28T08:29:04.197Z,7.00
2018-06-28T08:31:37.983Z,5.80
2018-06-28T08:34:12.606Z,7.80
2018-06-28T08:36:46.304Z,7.03
2018-06-28T08:39:20.069Z,5.67
2018-06-28T08:41:53.824Z,6.50
2018-06-28T08:44:27.580Z,5.10
2018-06-28T08:47:02.139Z,6.53
2018-06-28T08:49:35.854Z,8.87
2018-06-28T08:52:10.388Z,7.03
2018-06-28T08:54:44.852Z,6.53
2018-06-28T08:57:18.583Z,6.87
2018-06-28T09:02:29.615Z,7.80
2018-06-28T09:05:04.279Z,10.13
2018-06-28T09:07:38.080Z,7.37
2018-06-28T09:10:12.510Z,6.40
2018-06-28T09:12:46.159Z,11.37
2018-06-28T09:15:21.336Z,5.40
2018-06-28T09:17:55.767Z,6.07
2018-06-28T09:20:29.401Z,5.53
2018-06-28T09:23:03.216Z,5.87
2018-06-28T09:25:36.927Z,6.37
2018-06-28T09:28:10.671Z,6.17
2018-06-28T09:30:44.487Z,6.17
2018-06-28T09:46:27.447Z,7.30
2018-06-28T09:49:01.256Z,7.10
2018-06-28T09:51:35.760Z,6.60
2018-06-28T09:54:09.635Z,7.33
2018-06-28T09:56:44.095Z,8.93
2018-06-28T09:59:17.926Z,10.03
2018-06-28T10:01:51.968Z,6.00
2018-06-28T10:04:25.652Z,6.80
2018-06-28T10:06:59.630Z,5.90
2018-06-28T10:09:34.184Z,5.87
2018-06-28T10:12:07.991Z,7.17
2018-06-28T10:14:41.834Z,6.60
2018-06-28T10:17:15.600Z,7.23
2018-06-28T10:19:50.303Z,6.23
2018-06-28T10:22:24.046Z,6.50
2018-06-28T10:24:57.800Z,6.30
2018-06-28T10:27:32.234Z,6.27
2018-06-28T10:30:06.021Z,7.50
2018-06-28T10:32:39.802Z,6.80
2018-06-28T10:35:14.221Z,12.53
2018-06-28T10:37:47.996Z,6.33
2018-06-28T10:40:22.547Z,8.37
2018-06-28T10:42:56.210Z,6.80
2018-06-28T10:45:29.902Z,6.47
2018-06-28T10:48:03.741Z,6.53
2018-06-28T10:50:37.608Z,8.53
2018-06-28T10:53:11.454Z,6.23
2018-06-28T10:55:46.096Z,7.80
2018-06-28T10:58:19.736Z,6.90
2018-06-28T11:00:53.548Z,7.10
2018-06-28T11:03:28.149Z,7.47
2018-06-28T11:06:02.803Z,7.27
2018-06-28T11:08:36.621Z,7.20
2018-06-28T11:11:10.464Z,19.37
2018-06-28T11:13:45.055Z,8.27
2018-06-28T11:16:18.954Z,9.05
2018-06-28T11:18:53.566Z,9.90
2018-06-28T11:21:28.092Z,10.35
2018-06-28T11:24:03.429Z,12.35
2018-06-28T11:26:37.869Z,8.98
2018-06-28T11:29:11.672Z,9.40
2018-06-28T11:31:45.374Z,10.00
2018-06-28T11:34:19.929Z,10.25
2018-06-28T11:36:53.773Z,11.10
2018-06-28T11:39:28.938Z,9.68
2018-06-28T11:42:02.816Z,10.90
2018-06-28T11:44:36.592Z,17.67
2018-06-28T11:47:11.064Z,10.02
2018-06-28T11:49:45.706Z,10.30
2018-06-28T11:52:20.330Z,12.13
2018-06-28T11:54:54.841Z,10.60
2018-06-28T11:57:28.668Z,8.77
2018-06-28T12:00:03.860Z,9.55
2018-06-28T12:02:37.573Z,8.23
2018-06-28T12:05:11.295Z,8.80
2018-06-28T12:07:45.171Z,7.80
2018-06-28T12:10:19.693Z,8.90
2018-06-28T12:12:53.469Z,9.70
2018-06-28T12:15:27.314Z,10.33
2018-06-28T12:18:01.786Z,10.03
2018-06-28T12:20:36.252Z,8.73
2018-06-28T12:23:10.004Z,11.03
2018-06-28T12:25:44.606Z,9.53
2018-06-28T12:28:19.203Z,7.70
2018-06-28T12:30:53.041Z,9.43
2018-06-28T12:33:26.931Z,11.97
2018-06-28T12:36:00.750Z,8.87
2018-06-28T12:38:34.552Z,8.20
2018-06-28T12:41:09.707Z,11.90
2018-06-28T12:43:44.304Z,10.57
2018-06-28T12:46:18.092Z,9.77
2018-06-28T12:48:51.759Z,8.63
2018-06-28T12:51:26.318Z,8.00
2018-06-28T12:54:00.185Z,9.30
2018-06-28T12:56:34.659Z,8.97
2018-06-28T12:59:08.450Z,9.27
2018-06-28T13:01:43.017Z,9.60
2018-06-28T13:04:16.796Z,9.50
2018-06-28T13:06:50.481Z,9.63
2018-06-28T13:09:25.179Z,9.00
2018-06-28T13:11:59.060Z,10.00
2018-06-28T13:14:32.861Z,9.60
2018-06-28T13:17:07.404Z,9.47
2018-06-28T13:19:41.989Z,8.57
2018-06-28T13:22:17.163Z,11.30
2018-06-28T13:24:50.936Z,9.47
2018-06-28T13:27:24.687Z,8.40
2018-06-28T13:29:58.378Z,9.70
2018-06-28T13:32:31.997Z,8.90
2018-06-28T13:35:06.444Z,8.45
2018-06-28T13:37:40.344Z,8.90
2018-06-28T13:40:15.030Z,8.00
2018-06-28T13:42:48.843Z,8.95
2018-06-28T13:45:23.345Z,8.23
2018-06-28T13:47:57.228Z,11.33
2018-06-28T13:50:31.043Z,7.78
2018-06-28T13:53:05.609Z,8.35
2018-06-28T13:55:39.397Z,10.52
2018-06-28T13:58:14.033Z,7.93
2018-06-28T14:00:47.875Z,16.10
2018-06-28T14:03:21.772Z,14.70
2018-06-28T14:05:55.433Z,8.10
2018-06-28T14:08:29.216Z,8.60
2018-06-28T14:11:03.088Z,7.30
2018-06-28T14:13:36.868Z,7.03
2018-06-28T14:16:10.508Z,7.03
2018-06-28T14:18:44.931Z,7.30
2018-06-28T14:21:18.646Z,8.47
2018-06-28T14:23:53.139Z,7.80
2018-06-28T14:26:26.887Z,9.00
2018-06-28T14:29:01.333Z,9.10
2018-06-28T14:31:35.858Z,9.50
2018-06-28T14:34:09.632Z,10.07
2018-06-28T14:36:43.294Z,9.75
2018-06-28T14:39:17.133Z,9.75
2018-06-28T14:41:51.331Z,10.48
2018-06-28T14:44:25.149Z,10.73
2018-06-28T14:46:58.999Z,12.52
2018-06-28T14:49:32.801Z,11.50
2018-06-28T14:52:06.605Z,18.62
2018-06-28T14:54:40.422Z,12.55
2018-06-28T14:57:14.322Z,11.67
2018-06-28T14:59:48.848Z,12.23
2018-06-28T15:02:23.500Z,12.88
2018-06-28T15:04:57.292Z,13.88
2018-06-28T15:07:30.967Z,12.40
2018-06-28T15:10:05.211Z,13.00
2018-06-28T15:12:39.611Z,16.37
2018-06-28T15:15:13.604Z,16.00
2018-06-28T15:17:47.575Z,12.68
2018-06-28T15:20:21.870Z,12.90
2018-06-28T15:22:56.452Z,11.40
2018-06-28T15:25:30.352Z,14.05
2018-06-28T15:28:04.290Z,12.05
2018-06-28T15:30:38.108Z,12.63
2018-06-28T15:33:12.792Z,13.50
2018-06-28T15:35:47.453Z,14.35
2018-06-28T15:38:21.287Z,15.32
2018-06-28T15:40:55.096Z,13.30
2018-06-28T15:43:28.764Z,17.05
2018-06-28T15:46:03.278Z,14.45
2018-06-28T15:48:37.132Z,14.75
2018-06-28T15:51:10.801Z,17.42
2018-06-28T15:53:44.540Z,14.00
2018-06-28T15:56:19.080Z,15.25
2018-06-28T15:58:53.660Z,15.40
2018-06-28T16:01:28.311Z,16.75
2018-06-28T16:04:02.165Z,18.42
2018-06-28T16:06:35.960Z,19.15
2018-06-28T16:09:10.548Z,16.85
2018-06-28T16:11:45.142Z,14.85
2018-06-28T16:14:19.770Z,16.65
2018-06-28T16:16:54.283Z,15.18
2018-06-28T16:19:28.161Z,15.07
2018-06-28T16:22:01.975Z,15.00
2018-06-28T16:24:35.796Z,18.25
2018-06-28T16:27:09.607Z,15.20
2018-06-28T16:29:43.456Z,15.98
2018-06-28T16:32:17.812Z,17.12
2018-06-28T16:34:51.456Z,15.55
2018-06-28T16:37:25.239Z,19.00
2018-06-28T16:39:59.095Z,14.05
2018-06-28T16:42:32.915Z,17.30
2018-06-28T16:45:07.595Z,15.45
2018-06-28T16:47:42.224Z,16.42
2018-06-28T16:50:16.141Z,19.00
2018-06-28T16:52:49.986Z,16.70
2018-06-28T16:55:24.565Z,17.90
2018-06-28T16:57:58.392Z,16.10
2018-06-28T17:00:32.981Z,15.52
2018-06-28T17:03:07.632Z,15.35
2018-06-28T17:05:42.224Z,14.40
2018-06-28T17:08:16.104Z,14.23
2018-06-28T17:10:49.749Z,14.10
2018-06-28T17:13:23.530Z,14.05
2018-06-28T17:15:58.107Z,13.52
2018-06-28T17:18:32.671Z,12.63
2018-06-28T17:21:07.237Z,13.30
2018-06-28T17:23:41.837Z,20.35
2018-06-28T17:26:16.488Z,15.07
2018-06-28T17:28:50.310Z,15.75
2018-06-28T17:31:24.030Z,16.92
2018-06-28T17:33:58.618Z,18.23
2018-06-28T17:36:33.252Z,19.02
2018-06-28T17:39:07.047Z,14.93
2018-06-28T17:41:40.769Z,17.90
2018-06-28T17:44:14.465Z,16.20
2018-06-28T17:46:48.223Z,14.98
2018-06-28T17:49:22.032Z,13.02
2018-06-28T17:51:55.904Z,13.30
2018-06-28T17:54:29.647Z,12.73
2018-06-28T17:57:04.195Z,13.88
2018-06-28T17:59:38.027Z,14.20
2018-06-28T18:02:11.731Z,14.40
2018-06-28T18:04:46.286Z,13.23
2018-06-28T18:07:20.103Z,15.02
2018-06-28T18:09:53.902Z,14.20
2018-06-28T18:12:28.368Z,14.10
2018-06-28T18:15:02.120Z,16.70
2018-06-28T18:17:35.866Z,16.17
2018-06-28T18:20:09.537Z,14.95
2018-06-28T18:22:44.140Z,16.90
2018-06-28T18:25:17.935Z,14.48
2018-06-28T18:27:51.605Z,15.45
2018-06-28T18:30:25.467Z,12.88
2018-06-28T18:32:59.280Z,14.40
2018-06-28T18:35:33.152Z,12.27
2018-06-28T18:38:06.910Z,14.93
2018-06-28T18:40:41.349Z,12.13
2018-06-28T18:43:15.097Z,11.63
2018-06-28T18:45:49.570Z,13.73
2018-06-28T18:48:23.512Z,12.05
2018-06-28T18:50:57.370Z,13.35
2018-06-28T18:53:31.980Z,16.37
2018-06-28T18:56:05.868Z,11.80
2018-06-28T18:58:39.650Z,10.02
2018-06-28T19:01:13.328Z,9.00
2018-06-28T19:03:47.855Z,10.52
2018-06-28T19:06:21.725Z,9.30
2018-06-28T19:08:55.581Z,9.43
2018-06-28T19:11:29.418Z,8.93
2018-06-28T19:14:03.315Z,10.77
2018-06-28T19:16:54.857Z,9.73
2018-06-28T19:19:28.678Z,9.73
2018-06-28T19:24:54.473Z,11.55
2018-06-28T19:27:28.352Z,11.90
2018-06-28T19:30:01.989Z,9.98
2018-06-28T19:32:35.836Z,9.38
2018-06-28T19:35:09.648Z,10.30
2018-06-28T19:37:43.523Z,10.48
2018-06-28T19:40:23.099Z,15.70
2018-06-28T19:42:56.801Z,13.93
2018-06-28T19:45:31.374Z,13.95
2018-06-28T19:48:05.111Z,11.27
2018-06-28T19:53:29.810Z,15.55
2018-06-28T19:56:04.414Z,12.63
2018-06-28T19:58:39.047Z,11.57
2018-06-28T20:01:12.869Z,12.70
2018-06-28T20:06:38.064Z,12.60
2018-06-28T20:09:12.655Z,11.48
2018-06-28T20:11:47.310Z,11.00
2018-06-28T20:28:00.549Z,13.62
2018-06-28T20:33:41.215Z,11.18
2018-06-28T20:36:14.916Z,11.30
2018-06-28T20:38:48.732Z,12.30
2018-06-28T20:41:22.557Z,11.80
2018-06-28T20:43:56.374Z,12.27
2018-06-28T20:46:30.929Z,11.52
2018-06-28T20:49:04.605Z,11.95
2018-06-28T20:51:38.526Z,11.98
2018-06-28T20:54:12.346Z,11.07
2018-06-28T20:56:45.972Z,11.15
2018-06-28T20:59:19.900Z,12.25
2018-06-28T21:01:53.588Z,12.20
2018-06-28T21:04:27.422Z,12.60
2018-06-28T21:07:02.130Z,14.48
2018-06-28T21:09:35.976Z,14.18
2018-06-28T21:12:09.821Z,11.55
2018-06-28T21:14:43.652Z,11.38
2018-06-28T21:17:17.444Z,10.27
2018-06-28T21:19:51.285Z,11.57
2018-06-28T21:22:24.969Z,10.40
2018-06-28T21:24:58.665Z,11.00
2018-06-28T21:27:33.212Z,11.20
2018-06-28T21:30:07.044Z,11.15
2018-06-28T21:32:40.895Z,10.70
2018-06-28T21:35:14.731Z,11.85
2018-06-28T21:37:48.600Z,12.05
2018-06-28T21:40:23.125Z,12.98
2018-06-28T21:42:56.916Z,12.63
2018-06-28T21:45:30.688Z,13.02
2018-06-28T21:48:04.598Z,12.68
2018-06-28T21:50:39.296Z,13.98
2018-06-28T21:53:13.952Z,13.73
2018-06-28T21:55:47.629Z,10.25
2018-06-28T21:58:22.323Z,11.88
2018-06-28T22:00:55.948Z,11.80
2018-06-28T22:03:30.569Z,10.82
2018-06-28T22:06:05.100Z,12.15
2018-06-28T22:08:38.916Z,11.45
2018-06-28T22:11:13.524Z,11.10
2018-06-28T22:13:47.255Z,10.77
2018-06-28T22:16:20.938Z,11.02
2018-06-28T22:18:56.744Z,11.00
2018-06-28T22:21:30.499Z,11.77
2018-06-28T22:24:05.136Z,11.80
2018-06-28T22:26:38.928Z,10.95
2018-06-28T22:29:12.603Z,11.10
2018-06-28T22:31:46.398Z,11.80
2018-06-28T22:34:21.073Z,12.48
2018-06-28T22:36:55.602Z,11.50
2018-06-28T22:39:29.435Z,12.45
2018-06-28T22:42:03.925Z,12.63
2018-06-28T22:44:37.789Z,12.20
2018-06-28T22:47:12.312Z,11.75
2018-06-28T22:49:46.851Z,10.98
2018-06-28T22:52:20.567Z,10.63
2018-06-28T22:54:55.111Z,11.02
2018-06-28T22:57:29.026Z,11.27
2018-06-28T23:00:02.788Z,10.90
2018-06-28T23:02:36.648Z,11.80
2018-06-28T23:05:11.232Z,11.20
2018-06-28T23:07:45.790Z,12.40
2018-06-28T23:10:19.528Z,12.13
2018-06-28T23:12:53.408Z,11.07
2018-06-28T23:15:27.240Z,11.98
2018-06-28T23:18:00.944Z,12.65
2018-06-28T23:20:34.812Z,12.18
2018-06-28T23:23:08.619Z,12.70
2018-06-28T23:25:42.242Z,12.90
2018-06-28T23:28:16.024Z,12.68
2018-06-28T23:30:49.764Z,11.93
2018-06-28T23:33:23.551Z,10.68
2018-06-28T23:35:57.372Z,9.88
2018-06-28T23:38:31.165Z,11.57
2018-06-28T23:41:04.949Z,11.75
2018-06-28T23:43:40.087Z,11.30
2018-06-28T23:46:13.896Z,12.20
2018-06-28T23:48:47.693Z,13.55
2018-06-28T23:51:22.312Z,13.15
2018-06-28T23:53:56.144Z,12.25
2018-06-28T23:56:30.624Z,13.10
2018-06-28T23:59:04.406Z,13.40
